sensor_id;sensor_type;location;lat;lon;timestamp;P1;durP1;ratioP1;P2;durP2;ratioP2
53271;SDS011;39160;48.580;7.756;2023-06-04T00:04:00;4.22;;;1.77;;
53271;SDS011;39160;48.580;7.756;2023-06-04T00:08:51;4.68;;;1.63;;
53271;SDS011;39160;48.580;7.756;2023-06-04T00:13:41;2.58;;;1.40;;
53271;SDS011;39160;48.580;7.756;2023-06-04T00:18:32;3.70;;;1.50;;
53271;SDS011;39160;48.580;7.756;2023-06-04T00:23:23;4.30;;;1.52;;
53271;SDS011;39160;48.580;7.756;2023-06-04T00:28:14;5.10;;;1.60;;
53271;SDS011;39160;48.580;7.756;2023-06-04T00:33:04;3.47;;;1.42;;
53271;SDS011;39160;48.580;7.756;2023-06-04T00:37:58;2.47;;;1.70;;
53271;SDS011;39160;48.580;7.756;2023-06-04T00:42:49;3.50;;;1.70;;
53271;SDS011;39160;48.580;7.756;2023-06-04T00:47:40;2.03;;;1.23;;
53271;SDS011;39160;48.580;7.756;2023-06-04T00:52:31;2.10;;;1.30;;
53271;SDS011;39160;48.580;7.756;2023-06-04T00:57:22;3.22;;;1.38;;
53271;SDS011;39160;48.580;7.756;2023-06-04T01:02:16;2.65;;;1.15;;
53271;SDS011;39160;48.580;7.756;2023-06-04T01:07:13;2.83;;;1.23;;
53271;SDS011;39160;48.580;7.756;2023-06-04T01:12:06;1.85;;;1.30;;
53271;SDS011;39160;48.580;7.756;2023-06-04T01:22:10;3.28;;;1.20;;
53271;SDS011;39160;48.580;7.756;2023-06-04T01:27:10;2.92;;;1.45;;
53271;SDS011;39160;48.580;7.756;2023-06-04T01:32:02;6.05;;;1.92;;
53271;SDS011;39160;48.580;7.756;2023-06-04T01:36:53;2.50;;;1.52;;
53271;SDS011;39160;48.580;7.756;2023-06-04T01:41:44;3.17;;;1.58;;
53271;SDS011;39160;48.580;7.756;2023-06-04T01:46:35;2.67;;;1.77;;
53271;SDS011;39160;48.580;7.756;2023-06-04T01:51:25;4.18;;;1.85;;
53271;SDS011;39160;48.580;7.756;2023-06-04T01:56:16;1.52;;;1.30;;
53271;SDS011;39160;48.580;7.756;2023-06-04T02:01:07;2.20;;;1.58;;
53271;SDS011;39160;48.580;7.756;2023-06-04T02:05:59;2.22;;;1.38;;
53271;SDS011;39160;48.580;7.756;2023-06-04T02:10:50;4.78;;;1.83;;
53271;SDS011;39160;48.580;7.756;2023-06-04T02:15:42;1.83;;;1.25;;
53271;SDS011;39160;48.580;7.756;2023-06-04T02:20:33;7.50;;;1.75;;
53271;SDS011;39160;48.580;7.756;2023-06-04T02:25:23;3.88;;;1.65;;
53271;SDS011;39160;48.580;7.756;2023-06-04T02:30:14;5.40;;;1.65;;
53271;SDS011;39160;48.580;7.756;2023-06-04T02:35:06;3.97;;;2.03;;
53271;SDS011;39160;48.580;7.756;2023-06-04T02:39:57;2.63;;;1.42;;
53271;SDS011;39160;48.580;7.756;2023-06-04T02:44:48;2.53;;;1.25;;
53271;SDS011;39160;48.580;7.756;2023-06-04T02:49:39;3.30;;;1.20;;
53271;SDS011;39160;48.580;7.756;2023-06-04T02:54:30;3.65;;;1.27;;
53271;SDS011;39160;48.580;7.756;2023-06-04T02:59:20;4.15;;;1.52;;
53271;SDS011;39160;48.580;7.756;2023-06-04T03:04:11;2.90;;;1.55;;
53271;SDS011;39160;48.580;7.756;2023-06-04T03:09:04;3.15;;;1.40;;
53271;SDS011;39160;48.580;7.756;2023-06-04T03:13:55;4.43;;;2.67;;
53271;SDS011;39160;48.580;7.756;2023-06-04T03:18:46;1.98;;;1.13;;
53271;SDS011;39160;48.580;7.756;2023-06-04T03:23:36;1.80;;;1.30;;
53271;SDS011;39160;48.580;7.756;2023-06-04T03:28:27;5.53;;;1.70;;
53271;SDS011;39160;48.580;7.756;2023-06-04T03:33:19;2.72;;;2.00;;
53271;SDS011;39160;48.580;7.756;2023-06-04T03:38:09;2.47;;;1.50;;
53271;SDS011;39160;48.580;7.756;2023-06-04T03:43:00;2.22;;;1.40;;
53271;SDS011;39160;48.580;7.756;2023-06-04T03:47:51;1.73;;;1.17;;
53271;SDS011;39160;48.580;7.756;2023-06-04T03:52:41;2.40;;;1.60;;
53271;SDS011;39160;48.580;7.756;2023-06-04T03:57:32;2.42;;;1.40;;
53271;SDS011;39160;48.580;7.756;2023-06-04T04:02:22;2.65;;;1.40;;
53271;SDS011;39160;48.580;7.756;2023-06-04T04:07:13;2.08;;;1.20;;
53271;SDS011;39160;48.580;7.756;2023-06-04T04:12:05;1.83;;;1.30;;
53271;SDS011;39160;48.580;7.756;2023-06-04T04:16:56;1.65;;;1.30;;
53271;SDS011;39160;48.580;7.756;2023-06-04T04:21:46;7.30;;;2.08;;
53271;SDS011;39160;48.580;7.756;2023-06-04T04:26:40;2.28;;;1.48;;
53271;SDS011;39160;48.580;7.756;2023-06-04T04:31:33;3.38;;;1.48;;
53271;SDS011;39160;48.580;7.756;2023-06-04T04:36:26;1.60;;;1.00;;
53271;SDS011;39160;48.580;7.756;2023-06-04T04:41:16;2.33;;;1.55;;
53271;SDS011;39160;48.580;7.756;2023-06-04T04:46:07;3.53;;;1.30;;
53271;SDS011;39160;48.580;7.756;2023-06-04T04:50:58;2.10;;;1.27;;
53271;SDS011;39160;48.580;7.756;2023-06-04T04:55:48;2.80;;;1.58;;
53271;SDS011;39160;48.580;7.756;2023-06-04T05:00:39;2.08;;;1.30;;
53271;SDS011;39160;48.580;7.756;2023-06-04T05:05:31;1.30;;;0.95;;
53271;SDS011;39160;48.580;7.756;2023-06-04T05:10:22;2.08;;;1.45;;
53271;SDS011;39160;48.580;7.756;2023-06-04T05:15:13;0.93;;;0.82;;
53271;SDS011;39160;48.580;7.756;2023-06-04T05:20:04;1.23;;;0.77;;
53271;SDS011;39160;48.580;7.756;2023-06-04T05:24:55;6.60;;;1.25;;
53271;SDS011;39160;48.580;7.756;2023-06-04T05:29:49;3.65;;;1.30;;
53271;SDS011;39160;48.580;7.756;2023-06-04T05:34:39;2.33;;;1.40;;
53271;SDS011;39160;48.580;7.756;2023-06-04T05:39:30;2.83;;;1.42;;
53271;SDS011;39160;48.580;7.756;2023-06-04T05:44:21;2.13;;;1.10;;
53271;SDS011;39160;48.580;7.756;2023-06-04T05:49:11;6.45;;;2.08;;
53271;SDS011;39160;48.580;7.756;2023-06-04T05:54:02;2.00;;;1.20;;
53271;SDS011;39160;48.580;7.756;2023-06-04T05:58:53;2.22;;;1.35;;
53271;SDS011;39160;48.580;7.756;2023-06-04T06:03:44;1.77;;;1.50;;
53271;SDS011;39160;48.580;7.756;2023-06-04T06:08:35;4.53;;;1.48;;
53271;SDS011;39160;48.580;7.756;2023-06-04T06:13:25;1.90;;;1.70;;
53271;SDS011;39160;48.580;7.756;2023-06-04T06:18:16;2.28;;;1.40;;
53271;SDS011;39160;48.580;7.756;2023-06-04T06:23:06;2.13;;;1.35;;
53271;SDS011;39160;48.580;7.756;2023-06-04T06:27:57;3.10;;;1.40;;
53271;SDS011;39160;48.580;7.756;2023-06-04T06:32:48;3.03;;;1.48;;
53271;SDS011;39160;48.580;7.756;2023-06-04T06:37:39;4.00;;;1.90;;
53271;SDS011;39160;48.580;7.756;2023-06-04T06:42:32;2.28;;;1.30;;
53271;SDS011;39160;48.580;7.756;2023-06-04T06:47:23;3.70;;;1.45;;
53271;SDS011;39160;48.580;7.756;2023-06-04T06:52:14;3.00;;;1.75;;
53271;SDS011;39160;48.580;7.756;2023-06-04T06:57:09;2.22;;;1.20;;
53271;SDS011;39160;48.580;7.756;2023-06-04T07:01:59;2.00;;;1.30;;
53271;SDS011;39160;48.580;7.756;2023-06-04T07:06:50;2.67;;;1.30;;
53271;SDS011;39160;48.580;7.756;2023-06-04T07:11:40;3.28;;;1.75;;
53271;SDS011;39160;48.580;7.756;2023-06-04T07:16:31;4.65;;;2.00;;
53271;SDS011;39160;48.580;7.756;2023-06-04T07:21:22;6.68;;;2.20;;
53271;SDS011;39160;48.580;7.756;2023-06-04T07:26:14;2.15;;;1.60;;
53271;SDS011;39160;48.580;7.756;2023-06-04T07:31:04;2.70;;;1.50;;
53271;SDS011;39160;48.580;7.756;2023-06-04T07:35:55;3.47;;;1.35;;
53271;SDS011;39160;48.580;7.756;2023-06-04T07:40:45;2.95;;;1.48;;
53271;SDS011;39160;48.580;7.756;2023-06-04T07:45:37;2.63;;;2.00;;
53271;SDS011;39160;48.580;7.756;2023-06-04T07:50:28;3.38;;;1.60;;
53271;SDS011;39160;48.580;7.756;2023-06-04T07:55:18;9.65;;;1.83;;
53271;SDS011;39160;48.580;7.756;2023-06-04T08:00:09;1.77;;;1.15;;
53271;SDS011;39160;48.580;7.756;2023-06-04T08:05:01;2.30;;;1.70;;
53271;SDS011;39160;48.580;7.756;2023-06-04T08:09:52;2.15;;;1.65;;
53271;SDS011;39160;48.580;7.756;2023-06-04T08:14:43;2.72;;;1.75;;
53271;SDS011;39160;48.580;7.756;2023-06-04T08:19:33;3.30;;;1.83;;
53271;SDS011;39160;48.580;7.756;2023-06-04T08:24:24;2.35;;;1.35;;
53271;SDS011;39160;48.580;7.756;2023-06-04T08:29:15;2.95;;;1.25;;
53271;SDS011;39160;48.580;7.756;2023-06-04T08:34:05;2.85;;;1.60;;
53271;SDS011;39160;48.580;7.756;2023-06-04T08:38:56;1.65;;;1.48;;
53271;SDS011;39160;48.580;7.756;2023-06-04T08:43:47;4.07;;;1.45;;
53271;SDS011;39160;48.580;7.756;2023-06-04T08:48:39;3.47;;;2.13;;
53271;SDS011;39160;48.580;7.756;2023-06-04T08:53:30;3.80;;;1.70;;
53271;SDS011;39160;48.580;7.756;2023-06-04T08:58:21;5.13;;;1.55;;
53271;SDS011;39160;48.580;7.756;2023-06-04T09:03:13;4.18;;;1.92;;
53271;SDS011;39160;48.580;7.756;2023-06-04T09:08:05;2.92;;;1.95;;
53271;SDS011;39160;48.580;7.756;2023-06-04T09:12:59;3.08;;;1.50;;
53271;SDS011;39160;48.580;7.756;2023-06-04T09:22:43;2.42;;;1.35;;
53271;SDS011;39160;48.580;7.756;2023-06-04T09:27:38;3.17;;;1.60;;
53271;SDS011;39160;48.580;7.756;2023-06-04T09:32:33;2.42;;;1.45;;
53271;SDS011;39160;48.580;7.756;2023-06-04T09:37:23;3.08;;;1.92;;
53271;SDS011;39160;48.580;7.756;2023-06-04T09:42:14;3.50;;;2.13;;
53271;SDS011;39160;48.580;7.756;2023-06-04T09:47:05;1.90;;;1.45;;
53271;SDS011;39160;48.580;7.756;2023-06-04T09:51:56;4.70;;;2.30;;
53271;SDS011;39160;48.580;7.756;2023-06-04T09:56:47;3.35;;;1.83;;
53271;SDS011;39160;48.580;7.756;2023-06-04T10:01:41;4.68;;;2.47;;
53271;SDS011;39160;48.580;7.756;2023-06-04T10:06:34;5.70;;;2.45;;
53271;SDS011;39160;48.580;7.756;2023-06-04T10:11:26;2.97;;;1.77;;
53271;SDS011;39160;48.580;7.756;2023-06-04T10:16:24;2.10;;;1.83;;
53271;SDS011;39160;48.580;7.756;2023-06-04T10:21:16;5.80;;;2.30;;
53271;SDS011;39160;48.580;7.756;2023-06-04T10:26:08;5.13;;;2.35;;
53271;SDS011;39160;48.580;7.756;2023-06-04T10:30:59;3.17;;;2.42;;
53271;SDS011;39160;48.580;7.756;2023-06-04T10:35:50;2.67;;;1.65;;
53271;SDS011;39160;48.580;7.756;2023-06-04T10:40:43;2.67;;;1.60;;
53271;SDS011;39160;48.580;7.756;2023-06-04T10:45:35;5.50;;;1.85;;
53271;SDS011;39160;48.580;7.756;2023-06-04T10:50:25;4.45;;;2.08;;
53271;SDS011;39160;48.580;7.756;2023-06-04T10:55:16;4.10;;;2.20;;
53271;SDS011;39160;48.580;7.756;2023-06-04T11:00:07;6.10;;;3.28;;
53271;SDS011;39160;48.580;7.756;2023-06-04T11:05:03;4.95;;;2.17;;
53271;SDS011;39160;48.580;7.756;2023-06-04T11:09:56;3.25;;;1.80;;
53271;SDS011;39160;48.580;7.756;2023-06-04T11:14:54;2.72;;;2.00;;
53271;SDS011;39160;48.580;7.756;2023-06-04T11:19:48;4.80;;;2.13;;
53271;SDS011;39160;48.580;7.756;2023-06-04T11:24:39;4.07;;;1.92;;
53271;SDS011;39160;48.580;7.756;2023-06-04T11:29:30;7.15;;;3.85;;
53271;SDS011;39160;48.580;7.756;2023-06-04T11:34:27;5.93;;;2.85;;
53271;SDS011;39160;48.580;7.756;2023-06-04T11:39:20;8.20;;;2.63;;
53271;SDS011;39160;48.580;7.756;2023-06-04T11:44:12;5.03;;;2.45;;
53271;SDS011;39160;48.580;7.756;2023-06-04T11:49:03;4.88;;;2.15;;
53271;SDS011;39160;48.580;7.756;2023-06-04T11:53:54;4.45;;;2.30;;
53271;SDS011;39160;48.580;7.756;2023-06-04T11:58:45;7.45;;;2.88;;
53271;SDS011;39160;48.580;7.756;2023-06-04T12:03:37;5.72;;;2.53;;
53271;SDS011;39160;48.580;7.756;2023-06-04T12:08:29;4.63;;;2.60;;
53271;SDS011;39160;48.580;7.756;2023-06-04T12:13:19;4.43;;;2.30;;
53271;SDS011;39160;48.580;7.756;2023-06-04T12:18:10;7.10;;;2.20;;
53271;SDS011;39160;48.580;7.756;2023-06-04T12:23:01;4.05;;;2.15;;
53271;SDS011;39160;48.580;7.756;2023-06-04T12:27:52;4.10;;;2.03;;
53271;SDS011;39160;48.580;7.756;2023-06-04T12:32:43;4.18;;;2.63;;
53271;SDS011;39160;48.580;7.756;2023-06-04T12:37:35;5.47;;;2.00;;
53271;SDS011;39160;48.580;7.756;2023-06-04T12:42:25;5.90;;;2.42;;
53271;SDS011;39160;48.580;7.756;2023-06-04T12:47:18;4.00;;;2.20;;
53271;SDS011;39160;48.580;7.756;2023-06-04T12:52:08;2.85;;;2.55;;
53271;SDS011;39160;48.580;7.756;2023-06-04T12:56:59;5.18;;;2.47;;
53271;SDS011;39160;48.580;7.756;2023-06-04T13:01:50;5.05;;;2.40;;
53271;SDS011;39160;48.580;7.756;2023-06-04T13:06:40;3.90;;;2.25;;
53271;SDS011;39160;48.580;7.756;2023-06-04T13:11:31;3.40;;;1.70;;
53271;SDS011;39160;48.580;7.756;2023-06-04T13:16:22;3.85;;;2.40;;
53271;SDS011;39160;48.580;7.756;2023-06-04T13:21:12;3.88;;;1.70;;
53271;SDS011;39160;48.580;7.756;2023-06-04T13:26:03;5.18;;;2.45;;
53271;SDS011;39160;48.580;7.756;2023-06-04T13:30:54;2.70;;;2.10;;
53271;SDS011;39160;48.580;7.756;2023-06-04T13:35:44;3.70;;;2.27;;
53271;SDS011;39160;48.580;7.756;2023-06-04T13:40:35;2.90;;;2.20;;
53271;SDS011;39160;48.580;7.756;2023-06-04T13:45:26;3.97;;;2.57;;
53271;SDS011;39160;48.580;7.756;2023-06-04T13:50:17;4.47;;;2.20;;
53271;SDS011;39160;48.580;7.756;2023-06-04T13:55:08;3.97;;;2.30;;
53271;SDS011;39160;48.580;7.756;2023-06-04T13:59:59;2.95;;;2.50;;
53271;SDS011;39160;48.580;7.756;2023-06-04T14:04:53;7.13;;;3.60;;
53271;SDS011;39160;48.580;7.756;2023-06-04T14:09:44;3.60;;;2.30;;
53271;SDS011;39160;48.580;7.756;2023-06-04T14:14:35;3.33;;;2.13;;
53271;SDS011;39160;48.580;7.756;2023-06-04T14:19:26;3.20;;;2.20;;
53271;SDS011;39160;48.580;7.756;2023-06-04T14:24:17;4.80;;;2.37;;
53271;SDS011;39160;48.580;7.756;2023-06-04T14:29:07;3.37;;;2.20;;
53271;SDS011;39160;48.580;7.756;2023-06-04T14:33:58;4.57;;;2.43;;
53271;SDS011;39160;48.580;7.756;2023-06-04T14:38:49;3.90;;;2.03;;
53271;SDS011;39160;48.580;7.756;2023-06-04T14:43:40;5.33;;;2.17;;
53271;SDS011;39160;48.580;7.756;2023-06-04T14:48:30;3.10;;;2.30;;
53271;SDS011;39160;48.580;7.756;2023-06-04T14:53:21;3.77;;;2.20;;
53271;SDS011;39160;48.580;7.756;2023-06-04T14:58:12;4.32;;;2.63;;
53271;SDS011;39160;48.580;7.756;2023-06-04T15:03:04;3.97;;;1.90;;
53271;SDS011;39160;48.580;7.756;2023-06-04T15:07:55;4.15;;;2.50;;
53271;SDS011;39160;48.580;7.756;2023-06-04T15:12:45;2.90;;;2.63;;
53271;SDS011;39160;48.580;7.756;2023-06-04T15:17:36;3.23;;;1.90;;
53271;SDS011;39160;48.580;7.756;2023-06-04T15:22:27;4.97;;;2.90;;
53271;SDS011;39160;48.580;7.756;2023-06-04T15:27:18;2.70;;;2.33;;
53271;SDS011;39160;48.580;7.756;2023-06-04T15:32:08;5.43;;;2.23;;
53271;SDS011;39160;48.580;7.756;2023-06-04T15:36:59;4.37;;;2.70;;
53271;SDS011;39160;48.580;7.756;2023-06-04T15:41:50;2.50;;;2.20;;
53271;SDS011;39160;48.580;7.756;2023-06-04T15:46:40;3.87;;;2.30;;
53271;SDS011;39160;48.580;7.756;2023-06-04T15:51:31;3.13;;;2.47;;
53271;SDS011;39160;48.580;7.756;2023-06-04T15:56:22;3.20;;;2.80;;
53271;SDS011;39160;48.580;7.756;2023-06-04T16:01:13;3.28;;;2.33;;
53271;SDS011;39160;48.580;7.756;2023-06-04T16:06:04;3.57;;;2.60;;
53271;SDS011;39160;48.580;7.756;2023-06-04T16:10:54;6.40;;;2.53;;
53271;SDS011;39160;48.580;7.756;2023-06-04T16:15:45;2.80;;;2.27;;
53271;SDS011;39160;48.580;7.756;2023-06-04T16:20:35;3.57;;;1.87;;
53271;SDS011;39160;48.580;7.756;2023-06-04T16:25:26;2.63;;;2.10;;
53271;SDS011;39160;48.580;7.756;2023-06-04T16:30:17;4.70;;;2.30;;
53271;SDS011;39160;48.580;7.756;2023-06-04T16:35:08;5.37;;;2.57;;
53271;SDS011;39160;48.580;7.756;2023-06-04T16:40:00;4.45;;;2.33;;
53271;SDS011;39160;48.580;7.756;2023-06-04T16:44:51;2.40;;;2.20;;
53271;SDS011;39160;48.580;7.756;2023-06-04T16:49:41;3.50;;;2.40;;
53271;SDS011;39160;48.580;7.756;2023-06-04T16:54:32;3.50;;;2.23;;
53271;SDS011;39160;48.580;7.756;2023-06-04T16:59:23;3.90;;;2.40;;
53271;SDS011;39160;48.580;7.756;2023-06-04T17:04:15;3.65;;;2.65;;
53271;SDS011;39160;48.580;7.756;2023-06-04T17:09:06;3.37;;;2.37;;
53271;SDS011;39160;48.580;7.756;2023-06-04T17:13:57;3.60;;;2.63;;
53271;SDS011;39160;48.580;7.756;2023-06-04T17:18:47;4.27;;;2.43;;
53271;SDS011;39160;48.580;7.756;2023-06-04T17:23:38;3.47;;;2.23;;
53271;SDS011;39160;48.580;7.756;2023-06-04T17:28:29;2.58;;;1.92;;
53271;SDS011;39160;48.580;7.756;2023-06-04T17:33:20;2.57;;;2.03;;
53271;SDS011;39160;48.580;7.756;2023-06-04T17:38:10;3.10;;;2.15;;
53271;SDS011;39160;48.580;7.756;2023-06-04T17:43:01;3.15;;;2.50;;
53271;SDS011;39160;48.580;7.756;2023-06-04T17:47:52;2.88;;;2.28;;
53271;SDS011;39160;48.580;7.756;2023-06-04T17:52:43;3.10;;;2.33;;
53271;SDS011;39160;48.580;7.756;2023-06-04T17:57:36;2.33;;;1.92;;
53271;SDS011;39160;48.580;7.756;2023-06-04T18:02:27;3.53;;;2.25;;
53271;SDS011;39160;48.580;7.756;2023-06-04T18:07:18;3.40;;;2.20;;
53271;SDS011;39160;48.580;7.756;2023-06-04T18:12:10;3.55;;;1.90;;
53271;SDS011;39160;48.580;7.756;2023-06-04T18:17:00;3.65;;;1.85;;
53271;SDS011;39160;48.580;7.756;2023-06-04T18:21:51;3.00;;;2.35;;
53271;SDS011;39160;48.580;7.756;2023-06-04T18:26:42;5.20;;;2.00;;
53271;SDS011;39160;48.580;7.756;2023-06-04T18:31:32;3.17;;;2.00;;
53271;SDS011;39160;48.580;7.756;2023-06-04T18:36:23;3.33;;;2.30;;
53271;SDS011;39160;48.580;7.756;2023-06-04T18:41:14;4.00;;;1.90;;
53271;SDS011;39160;48.580;7.756;2023-06-04T18:46:05;4.40;;;2.00;;
53271;SDS011;39160;48.580;7.756;2023-06-04T18:50:55;3.08;;;2.00;;
53271;SDS011;39160;48.580;7.756;2023-06-04T18:55:46;4.13;;;2.00;;
53271;SDS011;39160;48.580;7.756;2023-06-04T19:00:37;2.95;;;2.00;;
53271;SDS011;39160;48.580;7.756;2023-06-04T19:05:27;7.13;;;1.83;;
53271;SDS011;39160;48.580;7.756;2023-06-04T19:10:19;3.20;;;2.08;;
53271;SDS011;39160;48.580;7.756;2023-06-04T19:15:10;2.72;;;1.63;;
53271;SDS011;39160;48.580;7.756;2023-06-04T19:20:01;5.90;;;1.77;;
53271;SDS011;39160;48.580;7.756;2023-06-04T19:24:52;2.35;;;1.75;;
53271;SDS011;39160;48.580;7.756;2023-06-04T19:29:42;5.38;;;2.10;;
53271;SDS011;39160;48.580;7.756;2023-06-04T19:34:35;3.25;;;1.95;;
53271;SDS011;39160;48.580;7.756;2023-06-04T19:39:26;2.08;;;1.65;;
53271;SDS011;39160;48.580;7.756;2023-06-04T19:44:17;2.67;;;1.85;;
53271;SDS011;39160;48.580;7.756;2023-06-04T19:49:08;6.57;;;2.78;;
53271;SDS011;39160;48.580;7.756;2023-06-04T19:53:59;3.78;;;2.17;;
53271;SDS011;39160;48.580;7.756;2023-06-04T19:58:49;4.72;;;1.77;;
53271;SDS011;39160;48.580;7.756;2023-06-04T20:03:40;5.07;;;2.05;;
53271;SDS011;39160;48.580;7.756;2023-06-04T20:08:31;5.97;;;2.47;;
53271;SDS011;39160;48.580;7.756;2023-06-04T20:13:24;2.78;;;1.63;;
53271;SDS011;39160;48.580;7.756;2023-06-04T20:18:15;2.85;;;1.42;;
53271;SDS011;39160;48.580;7.756;2023-06-04T20:23:06;3.63;;;1.48;;
53271;SDS011;39160;48.580;7.756;2023-06-04T20:27:56;4.60;;;1.77;;
53271;SDS011;39160;48.580;7.756;2023-06-04T20:32:47;4.07;;;1.60;;
53271;SDS011;39160;48.580;7.756;2023-06-04T20:37:43;3.85;;;2.22;;
53271;SDS011;39160;48.580;7.756;2023-06-04T20:42:33;2.90;;;1.77;;
53271;SDS011;39160;48.580;7.756;2023-06-04T20:47:25;6.03;;;2.92;;
53271;SDS011;39160;48.580;7.756;2023-06-04T20:52:15;4.57;;;1.77;;
53271;SDS011;39160;48.580;7.756;2023-06-04T20:57:06;2.17;;;1.40;;
53271;SDS011;39160;48.580;7.756;2023-06-04T21:01:57;3.30;;;1.70;;
53271;SDS011;39160;48.580;7.756;2023-06-04T21:06:48;2.88;;;1.33;;
53271;SDS011;39160;48.580;7.756;2023-06-04T21:11:39;2.53;;;1.67;;
53271;SDS011;39160;48.580;7.756;2023-06-04T21:16:30;2.97;;;1.27;;
53271;SDS011;39160;48.580;7.756;2023-06-04T21:21:20;4.43;;;1.73;;
53271;SDS011;39160;48.580;7.756;2023-06-04T21:26:11;2.90;;;1.48;;
53271;SDS011;39160;48.580;7.756;2023-06-04T21:31:01;3.33;;;1.30;;
53271;SDS011;39160;48.580;7.756;2023-06-04T21:35:52;4.07;;;1.80;;
53271;SDS011;39160;48.580;7.756;2023-06-04T21:40:43;3.08;;;1.50;;
53271;SDS011;39160;48.580;7.756;2023-06-04T21:45:34;5.03;;;1.75;;
53271;SDS011;39160;48.580;7.756;2023-06-04T21:50:24;3.05;;;1.30;;
53271;SDS011;39160;48.580;7.756;2023-06-04T21:55:15;3.13;;;1.63;;
53271;SDS011;39160;48.580;7.756;2023-06-04T22:00:06;2.65;;;1.35;;
53271;SDS011;39160;48.580;7.756;2023-06-04T22:04:57;1.85;;;1.20;;
53271;SDS011;39160;48.580;7.756;2023-06-04T22:09:48;2.50;;;1.33;;
53271;SDS011;39160;48.580;7.756;2023-06-04T22:14:39;2.42;;;1.45;;
53271;SDS011;39160;48.580;7.756;2023-06-04T22:19:30;2.78;;;1.70;;
53271;SDS011;39160;48.580;7.756;2023-06-04T22:24:20;3.85;;;1.70;;
53271;SDS011;39160;48.580;7.756;2023-06-04T22:29:11;3.40;;;1.67;;
53271;SDS011;39160;48.580;7.756;2023-06-04T22:34:02;2.17;;;1.25;;
53271;SDS011;39160;48.580;7.756;2023-06-04T22:38:52;1.88;;;1.25;;
53271;SDS011;39160;48.580;7.756;2023-06-04T22:43:43;2.90;;;1.60;;
53271;SDS011;39160;48.580;7.756;2023-06-04T22:48:34;3.75;;;1.20;;
53271;SDS011;39160;48.580;7.756;2023-06-04T22:53:25;4.05;;;1.73;;
53271;SDS011;39160;48.580;7.756;2023-06-04T22:58:16;3.15;;;1.55;;
53271;SDS011;39160;48.580;7.756;2023-06-04T23:03:07;2.40;;;1.25;;
53271;SDS011;39160;48.580;7.756;2023-06-04T23:07:58;2.42;;;1.15;;
53271;SDS011;39160;48.580;7.756;2023-06-04T23:12:49;2.20;;;1.23;;
53271;SDS011;39160;48.580;7.756;2023-06-04T23:17:40;2.15;;;1.15;;
53271;SDS011;39160;48.580;7.756;2023-06-04T23:22:31;3.17;;;1.52;;
53271;SDS011;39160;48.580;7.756;2023-06-04T23:27:22;2.03;;;1.50;;
53271;SDS011;39160;48.580;7.756;2023-06-04T23:32:12;2.38;;;1.30;;
53271;SDS011;39160;48.580;7.756;2023-06-04T23:37:03;8.63;;;1.85;;
53271;SDS011;39160;48.580;7.756;2023-06-04T23:41:54;3.03;;;1.13;;
53271;SDS011;39160;48.580;7.756;2023-06-04T23:46:44;1.88;;;1.33;;
53271;SDS011;39160;48.580;7.756;2023-06-04T23:51:35;2.10;;;1.90;;
53271;SDS011;39160;48.580;7.756;2023-06-04T23:56:26;4.45;;;2.00;;
